sensor_id;sensor_type;location;lat;lon;timestamp;P1;durP1;ratioP1;P2;durP2;ratioP2
19329;SDS011;9799;48.214;16.388;2024-03-17T00:01:03;1.20;;;1.10;;
19329;SDS011;9799;48.214;16.388;2024-03-17T00:04:24;2.50;;;1.20;;
19329;SDS011;9799;48.214;16.388;2024-03-17T00:07:46;1.17;;;1.00;;
19329;SDS011;9799;48.214;16.388;2024-03-17T00:11:08;2.93;;;1.00;;
19329;SDS011;9799;48.214;16.388;2024-03-17T00:14:36;1.37;;;1.27;;
19329;SDS011;9799;48.214;16.388;2024-03-17T00:17:58;1.47;;;1.37;;
19329;SDS011;9799;48.214;16.388;2024-03-17T00:21:19;1.17;;;1.10;;
19329;SDS011;9799;48.214;16.388;2024-03-17T00:24:41;1.30;;;1.20;;
19329;SDS011;9799;48.214;16.388;2024-03-17T00:28:05;1.53;;;1.43;;
19329;SDS011;9799;48.214;16.388;2024-03-17T00:31:27;4.60;;;1.57;;
19329;SDS011;9799;48.214;16.388;2024-03-17T00:34:48;1.40;;;1.30;;
19329;SDS011;9799;48.214;16.388;2024-03-17T00:38:09;1.87;;;1.63;;
19329;SDS011;9799;48.214;16.388;2024-03-17T00:41:30;2.67;;;1.97;;
19329;SDS011;9799;48.214;16.388;2024-03-17T00:44:52;1.90;;;1.80;;
19329;SDS011;9799;48.214;16.388;2024-03-17T00:48:13;2.57;;;2.10;;
19329;SDS011;9799;48.214;16.388;2024-03-17T00:51:35;2.13;;;1.57;;
19329;SDS011;9799;48.214;16.388;2024-03-17T00:54:56;2.77;;;2.00;;
19329;SDS011;9799;48.214;16.388;2024-03-17T00:58:17;1.83;;;1.73;;
19329;SDS011;9799;48.214;16.388;2024-03-17T01:01:39;2.10;;;1.90;;
19329;SDS011;9799;48.214;16.388;2024-03-17T01:05:01;2.30;;;2.10;;
19329;SDS011;9799;48.214;16.388;2024-03-17T01:08:24;2.57;;;2.37;;
19329;SDS011;9799;48.214;16.388;2024-03-17T01:11:45;2.20;;;2.00;;
19329;SDS011;9799;48.214;16.388;2024-03-17T01:15:06;2.50;;;2.30;;
19329;SDS011;9799;48.214;16.388;2024-03-17T01:18:30;2.17;;;1.97;;
19329;SDS011;9799;48.214;16.388;2024-03-17T01:21:53;2.90;;;2.30;;
19329;SDS011;9799;48.214;16.388;2024-03-17T01:25:14;2.77;;;2.57;;
19329;SDS011;9799;48.214;16.388;2024-03-17T01:28:35;2.63;;;2.43;;
19329;SDS011;9799;48.214;16.388;2024-03-17T01:31:56;4.13;;;2.70;;
19329;SDS011;9799;48.214;16.388;2024-03-17T01:35:17;3.10;;;2.87;;
19329;SDS011;9799;48.214;16.388;2024-03-17T01:38:41;3.27;;;2.97;;
19329;SDS011;9799;48.214;16.388;2024-03-17T01:42:02;3.30;;;2.80;;
19329;SDS011;9799;48.214;16.388;2024-03-17T01:45:25;2.57;;;2.37;;
19329;SDS011;9799;48.214;16.388;2024-03-17T01:48:47;4.10;;;3.13;;
19329;SDS011;9799;48.214;16.388;2024-03-17T01:52:08;4.10;;;3.73;;
19329;SDS011;9799;48.214;16.388;2024-03-17T01:55:30;4.30;;;3.23;;
19329;SDS011;9799;48.214;16.388;2024-03-17T01:58:52;5.77;;;3.93;;
19329;SDS011;9799;48.214;16.388;2024-03-17T02:02:14;5.17;;;3.70;;
19329;SDS011;9799;48.214;16.388;2024-03-17T02:05:35;3.37;;;3.07;;
19329;SDS011;9799;48.214;16.388;2024-03-17T02:08:57;4.43;;;4.03;;
19329;SDS011;9799;48.214;16.388;2024-03-17T02:12:20;5.47;;;4.43;;
19329;SDS011;9799;48.214;16.388;2024-03-17T02:15:42;8.40;;;3.80;;
19329;SDS011;9799;48.214;16.388;2024-03-17T02:19:03;4.90;;;4.23;;
19329;SDS011;9799;48.214;16.388;2024-03-17T02:22:25;4.63;;;4.00;;
19329;SDS011;9799;48.214;16.388;2024-03-17T02:25:47;5.03;;;4.37;;
19329;SDS011;9799;48.214;16.388;2024-03-17T02:29:08;8.17;;;4.20;;
19329;SDS011;9799;48.214;16.388;2024-03-17T02:32:30;6.33;;;4.13;;
19329;SDS011;9799;48.214;16.388;2024-03-17T02:35:51;6.33;;;4.27;;
19329;SDS011;9799;48.214;16.388;2024-03-17T02:39:13;4.20;;;3.80;;
19329;SDS011;9799;48.214;16.388;2024-03-17T02:42:53;6.77;;;4.57;;
19329;SDS011;9799;48.214;16.388;2024-03-17T02:46:15;5.47;;;3.83;;
19329;SDS011;9799;48.214;16.388;2024-03-17T02:49:37;4.47;;;4.07;;
19329;SDS011;9799;48.214;16.388;2024-03-17T02:52:59;7.10;;;5.27;;
19329;SDS011;9799;48.214;16.388;2024-03-17T02:56:23;6.77;;;4.43;;
19329;SDS011;9799;48.214;16.388;2024-03-17T02:59:44;4.63;;;4.13;;
19329;SDS011;9799;48.214;16.388;2024-03-17T03:03:06;7.23;;;4.47;;
19329;SDS011;9799;48.214;16.388;2024-03-17T03:06:27;5.40;;;4.40;;
19329;SDS011;9799;48.214;16.388;2024-03-17T03:09:48;5.03;;;4.53;;
19329;SDS011;9799;48.214;16.388;2024-03-17T03:13:12;6.07;;;4.63;;
19329;SDS011;9799;48.214;16.388;2024-03-17T03:16:34;4.93;;;4.20;;
19329;SDS011;9799;48.214;16.388;2024-03-17T03:19:55;5.47;;;4.40;;
19329;SDS011;9799;48.214;16.388;2024-03-17T03:23:16;5.07;;;4.57;;
19329;SDS011;9799;48.214;16.388;2024-03-17T03:26:38;5.97;;;4.63;;
19329;SDS011;9799;48.214;16.388;2024-03-17T03:30:00;7.50;;;4.57;;
19329;SDS011;9799;48.214;16.388;2024-03-17T03:33:23;10.20;;;4.77;;
19329;SDS011;9799;48.214;16.388;2024-03-17T03:36:45;5.17;;;4.67;;
19329;SDS011;9799;48.214;16.388;2024-03-17T03:40:06;8.13;;;4.77;;
19329;SDS011;9799;48.214;16.388;2024-03-17T03:43:35;6.23;;;4.83;;
19329;SDS011;9799;48.214;16.388;2024-03-17T03:46:58;5.07;;;4.40;;
19329;SDS011;9799;48.214;16.388;2024-03-17T03:50:20;9.03;;;5.17;;
19329;SDS011;9799;48.214;16.388;2024-03-17T03:53:42;5.63;;;4.70;;
19329;SDS011;9799;48.214;16.388;2024-03-17T03:57:04;8.60;;;4.90;;
19329;SDS011;9799;48.214;16.388;2024-03-17T04:00:25;7.77;;;4.87;;
19329;SDS011;9799;48.214;16.388;2024-03-17T04:03:52;5.97;;;4.53;;
19329;SDS011;9799;48.214;16.388;2024-03-17T04:07:13;6.53;;;5.53;;
19329;SDS011;9799;48.214;16.388;2024-03-17T04:10:34;6.33;;;5.57;;
19329;SDS011;9799;48.214;16.388;2024-03-17T04:13:55;5.80;;;5.20;;
19329;SDS011;9799;48.214;16.388;2024-03-17T04:17:17;7.83;;;5.80;;
19329;SDS011;9799;48.214;16.388;2024-03-17T04:20:41;5.47;;;4.43;;
19329;SDS011;9799;48.214;16.388;2024-03-17T04:24:02;6.87;;;5.03;;
19329;SDS011;9799;48.214;16.388;2024-03-17T04:27:23;5.93;;;4.87;;
19329;SDS011;9799;48.214;16.388;2024-03-17T04:30:45;6.30;;;4.43;;
19329;SDS011;9799;48.214;16.388;2024-03-17T04:34:06;8.43;;;5.17;;
19329;SDS011;9799;48.214;16.388;2024-03-17T04:37:29;5.03;;;4.23;;
19329;SDS011;9799;48.214;16.388;2024-03-17T04:40:50;7.87;;;4.60;;
19329;SDS011;9799;48.214;16.388;2024-03-17T04:44:16;6.67;;;4.30;;
19329;SDS011;9799;48.214;16.388;2024-03-17T04:47:38;7.43;;;4.60;;
19329;SDS011;9799;48.214;16.388;2024-03-17T04:50:59;5.43;;;4.10;;
19329;SDS011;9799;48.214;16.388;2024-03-17T04:54:22;5.30;;;4.43;;
19329;SDS011;9799;48.214;16.388;2024-03-17T04:57:44;7.77;;;4.23;;
19329;SDS011;9799;48.214;16.388;2024-03-17T05:01:05;3.90;;;3.50;;
19329;SDS011;9799;48.214;16.388;2024-03-17T05:04:27;6.93;;;4.10;;
19329;SDS011;9799;48.214;16.388;2024-03-17T05:07:48;6.47;;;4.30;;
19329;SDS011;9799;48.214;16.388;2024-03-17T05:11:11;6.63;;;4.63;;
19329;SDS011;9799;48.214;16.388;2024-03-17T05:14:33;7.97;;;4.20;;
19329;SDS011;9799;48.214;16.388;2024-03-17T05:17:55;5.93;;;4.47;;
19329;SDS011;9799;48.214;16.388;2024-03-17T05:21:16;6.67;;;5.03;;
19329;SDS011;9799;48.214;16.388;2024-03-17T05:24:37;5.40;;;4.63;;
19329;SDS011;9799;48.214;16.388;2024-03-17T05:28:00;9.50;;;5.60;;
19329;SDS011;9799;48.214;16.388;2024-03-17T05:31:21;8.33;;;5.10;;
19329;SDS011;9799;48.214;16.388;2024-03-17T05:34:42;5.50;;;4.83;;
19329;SDS011;9799;48.214;16.388;2024-03-17T05:38:03;6.53;;;4.87;;
19329;SDS011;9799;48.214;16.388;2024-03-17T05:41:26;6.20;;;4.70;;
19329;SDS011;9799;48.214;16.388;2024-03-17T05:44:49;7.10;;;4.40;;
19329;SDS011;9799;48.214;16.388;2024-03-17T05:48:12;6.77;;;4.70;;
19329;SDS011;9799;48.214;16.388;2024-03-17T05:51:33;5.27;;;4.27;;
19329;SDS011;9799;48.214;16.388;2024-03-17T05:54:55;7.07;;;4.77;;
19329;SDS011;9799;48.214;16.388;2024-03-17T05:58:16;9.83;;;4.57;;
19329;SDS011;9799;48.214;16.388;2024-03-17T06:01:39;8.57;;;4.13;;
19329;SDS011;9799;48.214;16.388;2024-03-17T06:05:00;9.47;;;4.43;;
19329;SDS011;9799;48.214;16.388;2024-03-17T06:08:23;6.83;;;3.90;;
19329;SDS011;9799;48.214;16.388;2024-03-17T06:11:45;6.20;;;4.13;;
19329;SDS011;9799;48.214;16.388;2024-03-17T06:15:07;7.10;;;3.80;;
19329;SDS011;9799;48.214;16.388;2024-03-17T06:18:30;11.17;;;4.63;;
19329;SDS011;9799;48.214;16.388;2024-03-17T06:21:52;6.53;;;3.93;;
19329;SDS011;9799;48.214;16.388;2024-03-17T06:25:13;6.33;;;3.90;;
19329;SDS011;9799;48.214;16.388;2024-03-17T06:28:34;8.03;;;3.97;;
19329;SDS011;9799;48.214;16.388;2024-03-17T06:31:56;6.73;;;3.80;;
19329;SDS011;9799;48.214;16.388;2024-03-17T06:35:18;7.07;;;3.77;;
19329;SDS011;9799;48.214;16.388;2024-03-17T06:38:40;7.57;;;3.70;;
19329;SDS011;9799;48.214;16.388;2024-03-17T06:42:01;3.87;;;3.47;;
19329;SDS011;9799;48.214;16.388;2024-03-17T06:45:23;5.47;;;3.03;;
19329;SDS011;9799;48.214;16.388;2024-03-17T06:48:44;6.70;;;3.90;;
19329;SDS011;9799;48.214;16.388;2024-03-17T06:52:07;7.90;;;3.83;;
19329;SDS011;9799;48.214;16.388;2024-03-17T06:55:28;5.27;;;3.77;;
19329;SDS011;9799;48.214;16.388;2024-03-17T06:58:49;6.43;;;3.30;;
19329;SDS011;9799;48.214;16.388;2024-03-17T07:02:13;5.33;;;3.50;;
19329;SDS011;9799;48.214;16.388;2024-03-17T07:05:36;5.47;;;3.30;;
19329;SDS011;9799;48.214;16.388;2024-03-17T07:08:59;5.57;;;3.47;;
19329;SDS011;9799;48.214;16.388;2024-03-17T07:12:21;4.73;;;2.97;;
19329;SDS011;9799;48.214;16.388;2024-03-17T07:15:46;4.63;;;3.80;;
19329;SDS011;9799;48.214;16.388;2024-03-17T07:19:08;6.17;;;3.23;;
19329;SDS011;9799;48.214;16.388;2024-03-17T07:22:29;5.97;;;3.40;;
19329;SDS011;9799;48.214;16.388;2024-03-17T07:25:54;7.50;;;3.60;;
19329;SDS011;9799;48.214;16.388;2024-03-17T07:29:16;4.73;;;3.37;;
19329;SDS011;9799;48.214;16.388;2024-03-17T07:32:39;6.87;;;3.63;;
19329;SDS011;9799;48.214;16.388;2024-03-17T07:36:00;7.77;;;3.90;;
19329;SDS011;9799;48.214;16.388;2024-03-17T07:39:22;4.73;;;3.10;;
19329;SDS011;9799;48.214;16.388;2024-03-17T07:42:45;8.23;;;3.17;;
19329;SDS011;9799;48.214;16.388;2024-03-17T07:46:07;5.30;;;3.30;;
19329;SDS011;9799;48.214;16.388;2024-03-17T07:49:31;4.10;;;3.43;;
19329;SDS011;9799;48.214;16.388;2024-03-17T07:52:52;10.67;;;3.60;;
19329;SDS011;9799;48.214;16.388;2024-03-17T07:56:14;3.47;;;3.10;;
19329;SDS011;9799;48.214;16.388;2024-03-17T07:59:37;6.07;;;3.40;;
19329;SDS011;9799;48.214;16.388;2024-03-17T08:02:58;5.67;;;3.63;;
19329;SDS011;9799;48.214;16.388;2024-03-17T08:06:20;6.50;;;3.20;;
19329;SDS011;9799;48.214;16.388;2024-03-17T08:09:41;3.87;;;3.13;;
19329;SDS011;9799;48.214;16.388;2024-03-17T08:13:03;4.43;;;2.87;;
19329;SDS011;9799;48.214;16.388;2024-03-17T08:16:26;5.63;;;3.37;;
19329;SDS011;9799;48.214;16.388;2024-03-17T08:19:47;3.43;;;2.80;;
19329;SDS011;9799;48.214;16.388;2024-03-17T08:23:08;5.67;;;3.03;;
19329;SDS011;9799;48.214;16.388;2024-03-17T08:26:31;4.57;;;2.97;;
19329;SDS011;9799;48.214;16.388;2024-03-17T08:29:52;5.37;;;2.87;;
19329;SDS011;9799;48.214;16.388;2024-03-17T08:33:15;4.87;;;2.70;;
19329;SDS011;9799;48.214;16.388;2024-03-17T08:36:36;3.93;;;3.10;;
19329;SDS011;9799;48.214;16.388;2024-03-17T08:39:57;6.23;;;2.57;;
19329;SDS011;9799;48.214;16.388;2024-03-17T08:43:19;4.83;;;3.33;;
19329;SDS011;9799;48.214;16.388;2024-03-17T08:46:40;3.33;;;2.70;;
19329;SDS011;9799;48.214;16.388;2024-03-17T08:50:05;5.47;;;3.20;;
19329;SDS011;9799;48.214;16.388;2024-03-17T08:53:27;4.80;;;3.17;;
19329;SDS011;9799;48.214;16.388;2024-03-17T08:56:49;4.87;;;3.33;;
19329;SDS011;9799;48.214;16.388;2024-03-17T09:00:11;4.30;;;3.10;;
19329;SDS011;9799;48.214;16.388;2024-03-17T09:03:34;3.30;;;3.00;;
19329;SDS011;9799;48.214;16.388;2024-03-17T09:06:57;7.27;;;3.30;;
19329;SDS011;9799;48.214;16.388;2024-03-17T09:10:20;4.40;;;3.30;;
19329;SDS011;9799;48.214;16.388;2024-03-17T09:13:41;4.73;;;3.47;;
19329;SDS011;9799;48.214;16.388;2024-03-17T09:17:02;4.00;;;2.73;;
19329;SDS011;9799;48.214;16.388;2024-03-17T09:20:24;4.80;;;3.47;;
19329;SDS011;9799;48.214;16.388;2024-03-17T09:23:46;3.83;;;2.83;;
19329;SDS011;9799;48.214;16.388;2024-03-17T09:27:08;3.10;;;2.87;;
19329;SDS011;9799;48.214;16.388;2024-03-17T09:30:30;4.13;;;2.80;;
19329;SDS011;9799;48.214;16.388;2024-03-17T09:33:51;3.30;;;2.97;;
19329;SDS011;9799;48.214;16.388;2024-03-17T09:37:12;6.17;;;3.00;;
19329;SDS011;9799;48.214;16.388;2024-03-17T09:40:36;5.73;;;2.87;;
19329;SDS011;9799;48.214;16.388;2024-03-17T09:43:57;4.37;;;3.23;;
19329;SDS011;9799;48.214;16.388;2024-03-17T09:47:19;3.23;;;2.93;;
19329;SDS011;9799;48.214;16.388;2024-03-17T09:50:41;5.50;;;3.07;;
19329;SDS011;9799;48.214;16.388;2024-03-17T09:54:04;3.53;;;3.00;;
19329;SDS011;9799;48.214;16.388;2024-03-17T09:57:36;3.90;;;2.97;;
19329;SDS011;9799;48.214;16.388;2024-03-17T10:00:57;3.70;;;3.23;;
19329;SDS011;9799;48.214;16.388;2024-03-17T10:04:31;3.50;;;2.53;;
19329;SDS011;9799;48.214;16.388;2024-03-17T10:07:53;4.10;;;2.87;;
19329;SDS011;9799;48.214;16.388;2024-03-17T10:11:14;4.30;;;3.17;;
19329;SDS011;9799;48.214;16.388;2024-03-17T10:14:38;5.07;;;3.30;;
19329;SDS011;9799;48.214;16.388;2024-03-17T10:17:59;3.50;;;3.17;;
19329;SDS011;9799;48.214;16.388;2024-03-17T10:21:24;3.33;;;2.80;;
19329;SDS011;9799;48.214;16.388;2024-03-17T10:24:47;5.77;;;2.77;;
19329;SDS011;9799;48.214;16.388;2024-03-17T10:28:20;2.90;;;2.63;;
19329;SDS011;9799;48.214;16.388;2024-03-17T10:31:43;3.93;;;2.50;;
19329;SDS011;9799;48.214;16.388;2024-03-17T10:35:05;3.87;;;2.73;;
19329;SDS011;9799;48.214;16.388;2024-03-17T10:38:51;2.67;;;2.47;;
19329;SDS011;9799;48.214;16.388;2024-03-17T10:42:12;4.17;;;3.50;;
19329;SDS011;9799;48.214;16.388;2024-03-17T10:45:34;3.77;;;2.60;;
19329;SDS011;9799;48.214;16.388;2024-03-17T10:48:59;3.10;;;2.63;;
19329;SDS011;9799;48.214;16.388;2024-03-17T10:52:21;3.37;;;2.40;;
19329;SDS011;9799;48.214;16.388;2024-03-17T10:55:45;3.60;;;2.47;;
19329;SDS011;9799;48.214;16.388;2024-03-17T10:59:07;4.50;;;3.00;;
19329;SDS011;9799;48.214;16.388;2024-03-17T11:02:31;6.27;;;2.93;;
19329;SDS011;9799;48.214;16.388;2024-03-17T11:05:55;3.40;;;2.67;;
19329;SDS011;9799;48.214;16.388;2024-03-17T11:09:17;3.90;;;2.40;;
19329;SDS011;9799;48.214;16.388;2024-03-17T11:12:40;3.37;;;2.50;;
19329;SDS011;9799;48.214;16.388;2024-03-17T11:16:03;4.47;;;3.00;;
19329;SDS011;9799;48.214;16.388;2024-03-17T11:19:25;3.10;;;2.43;;
19329;SDS011;9799;48.214;16.388;2024-03-17T11:22:48;4.00;;;2.80;;
19329;SDS011;9799;48.214;16.388;2024-03-17T11:26:10;3.60;;;2.37;;
19329;SDS011;9799;48.214;16.388;2024-03-17T11:29:31;2.50;;;2.20;;
19329;SDS011;9799;48.214;16.388;2024-03-17T11:32:53;4.17;;;2.87;;
19329;SDS011;9799;48.214;16.388;2024-03-17T11:36:30;3.00;;;2.70;;
19329;SDS011;9799;48.214;16.388;2024-03-17T11:39:57;3.70;;;2.40;;
19329;SDS011;9799;48.214;16.388;2024-03-17T11:43:18;3.23;;;2.33;;
19329;SDS011;9799;48.214;16.388;2024-03-17T11:46:40;3.57;;;2.40;;
19329;SDS011;9799;48.214;16.388;2024-03-17T11:50:02;4.57;;;2.40;;
19329;SDS011;9799;48.214;16.388;2024-03-17T11:53:24;2.90;;;2.20;;
19329;SDS011;9799;48.214;16.388;2024-03-17T11:56:49;4.40;;;2.30;;
19329;SDS011;9799;48.214;16.388;2024-03-17T12:00:21;7.37;;;3.67;;
19329;SDS011;9799;48.214;16.388;2024-03-17T12:03:44;2.70;;;1.93;;
19329;SDS011;9799;48.214;16.388;2024-03-17T12:07:08;4.13;;;2.40;;
19329;SDS011;9799;48.214;16.388;2024-03-17T12:10:33;3.70;;;2.80;;
19329;SDS011;9799;48.214;16.388;2024-03-17T12:13:55;3.10;;;2.47;;
19329;SDS011;9799;48.214;16.388;2024-03-17T12:17:20;4.30;;;3.07;;
19329;SDS011;9799;48.214;16.388;2024-03-17T12:20:42;5.60;;;2.93;;
19329;SDS011;9799;48.214;16.388;2024-03-17T12:24:08;3.97;;;2.40;;
19329;SDS011;9799;48.214;16.388;2024-03-17T12:27:38;6.00;;;2.70;;
19329;SDS011;9799;48.214;16.388;2024-03-17T12:31:06;2.87;;;2.17;;
19329;SDS011;9799;48.214;16.388;2024-03-17T12:34:28;3.03;;;2.53;;
19329;SDS011;9799;48.214;16.388;2024-03-17T12:37:51;3.13;;;2.23;;
19329;SDS011;9799;48.214;16.388;2024-03-17T12:41:16;3.00;;;2.70;;
19329;SDS011;9799;48.214;16.388;2024-03-17T12:44:37;4.63;;;2.83;;
19329;SDS011;9799;48.214;16.388;2024-03-17T12:48:02;3.10;;;2.10;;
19329;SDS011;9799;48.214;16.388;2024-03-17T12:51:24;3.60;;;2.93;;
19329;SDS011;9799;48.214;16.388;2024-03-17T12:54:44;2.90;;;2.43;;
19329;SDS011;9799;48.214;16.388;2024-03-17T12:58:26;4.40;;;2.73;;
19329;SDS011;9799;48.214;16.388;2024-03-17T13:02:05;3.30;;;2.27;;
19329;SDS011;9799;48.214;16.388;2024-03-17T13:05:32;2.97;;;2.27;;
19329;SDS011;9799;48.214;16.388;2024-03-17T13:08:53;2.93;;;2.20;;
19329;SDS011;9799;48.214;16.388;2024-03-17T13:12:14;2.90;;;2.40;;
19329;SDS011;9799;48.214;16.388;2024-03-17T13:15:36;4.70;;;2.50;;
19329;SDS011;9799;48.214;16.388;2024-03-17T13:18:57;2.90;;;2.17;;
19329;SDS011;9799;48.214;16.388;2024-03-17T13:22:19;3.20;;;2.90;;
19329;SDS011;9799;48.214;16.388;2024-03-17T13:25:41;3.60;;;2.40;;
19329;SDS011;9799;48.214;16.388;2024-03-17T13:29:02;2.53;;;2.33;;
19329;SDS011;9799;48.214;16.388;2024-03-17T13:32:24;3.50;;;2.73;;
19329;SDS011;9799;48.214;16.388;2024-03-17T13:35:46;3.13;;;1.97;;
19329;SDS011;9799;48.214;16.388;2024-03-17T13:39:08;3.23;;;2.40;;
19329;SDS011;9799;48.214;16.388;2024-03-17T13:42:30;6.10;;;2.67;;
19329;SDS011;9799;48.214;16.388;2024-03-17T13:45:51;3.57;;;2.40;;
19329;SDS011;9799;48.214;16.388;2024-03-17T13:49:12;4.80;;;2.87;;
19329;SDS011;9799;48.214;16.388;2024-03-17T13:52:34;3.20;;;2.20;;
19329;SDS011;9799;48.214;16.388;2024-03-17T13:55:56;4.63;;;2.50;;
19329;SDS011;9799;48.214;16.388;2024-03-17T13:59:18;2.63;;;2.40;;
19329;SDS011;9799;48.214;16.388;2024-03-17T14:02:39;2.83;;;2.43;;
19329;SDS011;9799;48.214;16.388;2024-03-17T14:06:00;4.20;;;2.20;;
19329;SDS011;9799;48.214;16.388;2024-03-17T14:09:21;3.80;;;2.33;;
19329;SDS011;9799;48.214;16.388;2024-03-17T14:12:44;2.27;;;1.97;;
19329;SDS011;9799;48.214;16.388;2024-03-17T14:16:06;7.43;;;2.30;;
19329;SDS011;9799;48.214;16.388;2024-03-17T14:19:27;2.97;;;2.20;;
19329;SDS011;9799;48.214;16.388;2024-03-17T14:22:48;6.03;;;2.50;;
19329;SDS011;9799;48.214;16.388;2024-03-17T14:26:12;3.83;;;2.30;;
19329;SDS011;9799;48.214;16.388;2024-03-17T14:29:35;3.63;;;2.33;;
19329;SDS011;9799;48.214;16.388;2024-03-17T14:32:57;3.00;;;2.20;;
19329;SDS011;9799;48.214;16.388;2024-03-17T14:36:18;4.23;;;2.17;;
19329;SDS011;9799;48.214;16.388;2024-03-17T14:39:46;4.00;;;2.47;;
19329;SDS011;9799;48.214;16.388;2024-03-17T14:43:07;3.03;;;2.20;;
19329;SDS011;9799;48.214;16.388;2024-03-17T14:46:29;3.10;;;2.27;;
19329;SDS011;9799;48.214;16.388;2024-03-17T14:49:51;4.47;;;2.43;;
19329;SDS011;9799;48.214;16.388;2024-03-17T14:53:13;5.50;;;2.70;;
19329;SDS011;9799;48.214;16.388;2024-03-17T14:56:34;4.73;;;2.53;;
19329;SDS011;9799;48.214;16.388;2024-03-17T14:59:55;3.60;;;2.37;;
19329;SDS011;9799;48.214;16.388;2024-03-17T15:03:19;4.40;;;2.30;;
19329;SDS011;9799;48.214;16.388;2024-03-17T15:06:41;2.80;;;2.03;;
19329;SDS011;9799;48.214;16.388;2024-03-17T15:10:03;2.20;;;2.00;;
19329;SDS011;9799;48.214;16.388;2024-03-17T15:13:25;2.90;;;2.20;;
19329;SDS011;9799;48.214;16.388;2024-03-17T15:16:47;3.13;;;2.27;;
19329;SDS011;9799;48.214;16.388;2024-03-17T15:20:10;3.60;;;1.97;;
19329;SDS011;9799;48.214;16.388;2024-03-17T15:23:36;3.17;;;2.00;;
19329;SDS011;9799;48.214;16.388;2024-03-17T15:26:59;4.30;;;2.70;;
19329;SDS011;9799;48.214;16.388;2024-03-17T15:30:20;4.13;;;2.47;;
19329;SDS011;9799;48.214;16.388;2024-03-17T15:33:41;4.07;;;2.07;;
19329;SDS011;9799;48.214;16.388;2024-03-17T15:37:04;4.63;;;2.23;;
19329;SDS011;9799;48.214;16.388;2024-03-17T15:40:28;3.40;;;1.80;;
19329;SDS011;9799;48.214;16.388;2024-03-17T15:43:49;6.83;;;3.03;;
19329;SDS011;9799;48.214;16.388;2024-03-17T15:47:10;3.50;;;2.10;;
19329;SDS011;9799;48.214;16.388;2024-03-17T15:50:31;3.23;;;2.20;;
19329;SDS011;9799;48.214;16.388;2024-03-17T15:53:56;3.10;;;2.17;;
19329;SDS011;9799;48.214;16.388;2024-03-17T15:57:17;3.20;;;2.40;;
19329;SDS011;9799;48.214;16.388;2024-03-17T16:00:38;3.93;;;2.50;;
19329;SDS011;9799;48.214;16.388;2024-03-17T16:03:59;3.17;;;2.47;;
19329;SDS011;9799;48.214;16.388;2024-03-17T16:07:22;5.97;;;2.30;;
19329;SDS011;9799;48.214;16.388;2024-03-17T16:10:45;3.03;;;2.10;;
19329;SDS011;9799;48.214;16.388;2024-03-17T16:14:10;3.60;;;1.80;;
19329;SDS011;9799;48.214;16.388;2024-03-17T16:17:32;3.13;;;1.97;;
19329;SDS011;9799;48.214;16.388;2024-03-17T16:21:03;2.60;;;1.83;;
19329;SDS011;9799;48.214;16.388;2024-03-17T16:24:26;5.00;;;2.00;;
19329;SDS011;9799;48.214;16.388;2024-03-17T16:27:49;5.33;;;2.70;;
19329;SDS011;9799;48.214;16.388;2024-03-17T16:31:11;2.70;;;2.00;;
19329;SDS011;9799;48.214;16.388;2024-03-17T16:34:32;2.40;;;1.60;;
19329;SDS011;9799;48.214;16.388;2024-03-17T16:37:53;2.30;;;1.60;;
19329;SDS011;9799;48.214;16.388;2024-03-17T16:41:15;2.37;;;1.93;;
19329;SDS011;9799;48.214;16.388;2024-03-17T16:44:40;3.50;;;1.97;;
19329;SDS011;9799;48.214;16.388;2024-03-17T16:48:09;2.33;;;1.90;;
19329;SDS011;9799;48.214;16.388;2024-03-17T16:51:30;2.77;;;2.10;;
19329;SDS011;9799;48.214;16.388;2024-03-17T16:54:51;3.20;;;2.13;;
19329;SDS011;9799;48.214;16.388;2024-03-17T16:58:13;4.30;;;2.10;;
19329;SDS011;9799;48.214;16.388;2024-03-17T17:01:36;2.90;;;2.33;;
19329;SDS011;9799;48.214;16.388;2024-03-17T17:05:00;2.67;;;2.20;;
19329;SDS011;9799;48.214;16.388;2024-03-17T17:08:24;4.17;;;2.70;;
19329;SDS011;9799;48.214;16.388;2024-03-17T17:11:48;3.17;;;2.50;;
19329;SDS011;9799;48.214;16.388;2024-03-17T17:15:13;4.17;;;2.90;;
19329;SDS011;9799;48.214;16.388;2024-03-17T17:18:49;5.70;;;3.37;;
19329;SDS011;9799;48.214;16.388;2024-03-17T17:22:12;4.23;;;3.40;;
19329;SDS011;9799;48.214;16.388;2024-03-17T17:25:35;3.03;;;2.73;;
19329;SDS011;9799;48.214;16.388;2024-03-17T17:28:56;4.20;;;3.77;;
19329;SDS011;9799;48.214;16.388;2024-03-17T17:32:20;4.73;;;3.30;;
19329;SDS011;9799;48.214;16.388;2024-03-17T17:35:43;6.10;;;4.13;;
19329;SDS011;9799;48.214;16.388;2024-03-17T17:39:04;6.67;;;3.30;;
19329;SDS011;9799;48.214;16.388;2024-03-17T17:42:25;4.50;;;3.63;;
19329;SDS011;9799;48.214;16.388;2024-03-17T17:45:47;8.27;;;4.40;;
19329;SDS011;9799;48.214;16.388;2024-03-17T17:49:08;5.13;;;3.03;;
19329;SDS011;9799;48.214;16.388;2024-03-17T17:52:30;6.90;;;3.20;;
19329;SDS011;9799;48.214;16.388;2024-03-17T17:55:52;4.80;;;3.13;;
19329;SDS011;9799;48.214;16.388;2024-03-17T17:59:15;4.53;;;3.70;;
19329;SDS011;9799;48.214;16.388;2024-03-17T18:02:37;7.23;;;4.33;;
19329;SDS011;9799;48.214;16.388;2024-03-17T18:05:58;6.83;;;3.90;;
19329;SDS011;9799;48.214;16.388;2024-03-17T18:09:22;6.27;;;3.97;;
19329;SDS011;9799;48.214;16.388;2024-03-17T18:12:48;5.87;;;3.77;;
19329;SDS011;9799;48.214;16.388;2024-03-17T18:16:10;4.87;;;4.03;;
19329;SDS011;9799;48.214;16.388;2024-03-17T18:19:34;4.07;;;3.57;;
19329;SDS011;9799;48.214;16.388;2024-03-17T18:22:55;5.67;;;4.23;;
19329;SDS011;9799;48.214;16.388;2024-03-17T18:26:18;4.13;;;3.73;;
19329;SDS011;9799;48.214;16.388;2024-03-17T18:29:40;4.50;;;3.60;;
19329;SDS011;9799;48.214;16.388;2024-03-17T18:33:04;5.77;;;4.43;;
19329;SDS011;9799;48.214;16.388;2024-03-17T18:36:25;5.60;;;3.37;;
19329;SDS011;9799;48.214;16.388;2024-03-17T18:39:47;6.43;;;4.53;;
19329;SDS011;9799;48.214;16.388;2024-03-17T18:43:10;6.33;;;4.07;;
19329;SDS011;9799;48.214;16.388;2024-03-17T18:46:31;5.80;;;4.43;;
19329;SDS011;9799;48.214;16.388;2024-03-17T18:49:52;5.37;;;4.13;;
19329;SDS011;9799;48.214;16.388;2024-03-17T18:53:13;7.17;;;4.53;;
19329;SDS011;9799;48.214;16.388;2024-03-17T18:56:35;5.43;;;4.10;;
19329;SDS011;9799;48.214;16.388;2024-03-17T18:59:59;7.10;;;4.83;;
19329;SDS011;9799;48.214;16.388;2024-03-17T19:03:21;7.70;;;5.13;;
19329;SDS011;9799;48.214;16.388;2024-03-17T19:06:46;7.10;;;5.57;;
19329;SDS011;9799;48.214;16.388;2024-03-17T19:10:09;21.00;;;15.07;;
19329;SDS011;9799;48.214;16.388;2024-03-17T19:13:32;6.77;;;6.07;;
19329;SDS011;9799;48.214;16.388;2024-03-17T19:16:56;6.57;;;4.63;;
19329;SDS011;9799;48.214;16.388;2024-03-17T19:20:18;7.07;;;4.83;;
19329;SDS011;9799;48.214;16.388;2024-03-17T19:23:41;6.50;;;4.23;;
19329;SDS011;9799;48.214;16.388;2024-03-17T19:27:03;7.70;;;4.03;;
19329;SDS011;9799;48.214;16.388;2024-03-17T19:30:25;12.40;;;4.47;;
19329;SDS011;9799;48.214;16.388;2024-03-17T19:33:48;6.50;;;4.83;;
19329;SDS011;9799;48.214;16.388;2024-03-17T19:37:10;8.30;;;6.13;;
19329;SDS011;9799;48.214;16.388;2024-03-17T19:40:32;18.90;;;6.47;;
19329;SDS011;9799;48.214;16.388;2024-03-17T19:43:55;7.67;;;6.13;;
19329;SDS011;9799;48.214;16.388;2024-03-17T19:47:17;9.63;;;6.27;;
19329;SDS011;9799;48.214;16.388;2024-03-17T19:50:44;7.47;;;4.93;;
19329;SDS011;9799;48.214;16.388;2024-03-17T19:54:06;7.97;;;4.87;;
19329;SDS011;9799;48.214;16.388;2024-03-17T19:57:28;8.73;;;6.33;;
19329;SDS011;9799;48.214;16.388;2024-03-17T20:00:49;7.03;;;5.03;;
19329;SDS011;9799;48.214;16.388;2024-03-17T20:04:11;9.03;;;4.87;;
19329;SDS011;9799;48.214;16.388;2024-03-17T20:07:34;4.30;;;3.67;;
19329;SDS011;9799;48.214;16.388;2024-03-17T20:10:56;6.90;;;4.27;;
19329;SDS011;9799;48.214;16.388;2024-03-17T20:14:18;5.43;;;4.13;;
19329;SDS011;9799;48.214;16.388;2024-03-17T20:17:40;7.70;;;5.00;;
19329;SDS011;9799;48.214;16.388;2024-03-17T20:21:01;12.77;;;8.57;;